createdAt,value
2019-01-28T00:01:39.832Z,96.20
2019-01-28T00:04:09.202Z,91.60
2019-01-28T00:06:38.594Z,93.12
2019-01-28T00:09:08.490Z,94.15
2019-01-28T00:11:37.921Z,98.80
2019-01-28T00:14:07.360Z,98.97
2019-01-28T00:16:38.651Z,106.63
2019-01-28T00:19:07.985Z,103.72
2019-01-28T00:21:37.395Z,103.65
2019-01-28T00:24:06.863Z,102.87
2019-01-28T00:26:36.255Z,110.33
2019-01-28T00:29:06.059Z,136.37
2019-01-28T00:31:35.415Z,116.50
2019-01-28T00:34:04.872Z,112.52
2019-01-28T00:36:35.761Z,124.20
2019-01-28T00:39:08.660Z,149.53
2019-01-28T00:41:38.039Z,176.82
2019-01-28T00:44:07.412Z,186.80
2019-01-28T00:46:36.829Z,190.05
2019-01-28T00:49:06.289Z,177.45
2019-01-28T00:51:35.629Z,169.60
2019-01-28T00:54:05.209Z,154.90
2019-01-28T00:56:34.670Z,147.40
2019-01-28T00:59:04.054Z,126.07
2019-01-28T01:01:33.491Z,145.43
2019-01-28T01:04:03.011Z,145.90
2019-01-28T01:06:32.391Z,138.55
2019-01-28T01:09:01.746Z,128.27
2019-01-28T01:11:31.203Z,140.95
2019-01-28T01:14:00.558Z,128.25
2019-01-28T01:16:30.139Z,121.82
2019-01-28T01:18:59.552Z,109.87
2019-01-28T01:21:29.195Z,107.17
2019-01-28T01:23:58.523Z,110.87
2019-01-28T01:26:27.993Z,109.27
2019-01-28T01:28:57.352Z,108.07
2019-01-28T01:31:26.697Z,117.77
2019-01-28T01:33:56.084Z,120.07
2019-01-28T01:36:25.435Z,114.08
2019-01-28T01:38:54.815Z,116.13
2019-01-28T01:41:24.173Z,100.27
2019-01-28T01:43:53.532Z,96.45
2019-01-28T01:46:22.982Z,106.37
2019-01-28T01:48:52.483Z,105.25
2019-01-28T01:51:21.904Z,107.10
2019-01-28T01:53:51.260Z,109.53
2019-01-28T01:56:20.615Z,109.65
2019-01-28T01:58:49.970Z,97.50
2019-01-28T02:01:19.333Z,98.67
2019-01-28T02:03:48.699Z,96.12
2019-01-28T02:06:18.024Z,97.30
2019-01-28T02:08:47.488Z,97.17
2019-01-28T02:11:16.850Z,100.90
2019-01-28T02:13:46.240Z,99.25
2019-01-28T02:16:15.570Z,90.73
2019-01-28T02:18:45.023Z,93.40
2019-01-28T02:21:14.432Z,90.30
2019-01-28T02:23:43.752Z,89.58
2019-01-28T02:26:13.083Z,88.57
2019-01-28T02:28:42.434Z,89.47
2019-01-28T02:31:11.802Z,86.72
2019-01-28T02:33:41.160Z,84.70
2019-01-28T02:36:10.534Z,85.60
2019-01-28T02:38:39.879Z,84.03
2019-01-28T02:41:09.262Z,85.30
2019-01-28T02:43:38.653Z,84.40
2019-01-28T02:46:08.011Z,78.40
2019-01-28T02:48:37.349Z,76.63
2019-01-28T02:51:06.847Z,83.00
2019-01-28T02:53:36.181Z,85.83
2019-01-28T02:56:05.803Z,85.70
2019-01-28T02:58:35.137Z,86.97
2019-01-28T03:01:04.554Z,86.30
2019-01-28T03:03:34.291Z,83.67
2019-01-28T03:06:03.748Z,84.83
2019-01-28T03:08:33.062Z,78.87
2019-01-28T03:11:02.415Z,81.67
2019-01-28T03:13:31.780Z,78.23
2019-01-28T03:16:01.105Z,78.13
2019-01-28T03:18:30.470Z,78.13
2019-01-28T03:20:59.886Z,75.70
2019-01-28T03:23:29.831Z,74.43
2019-01-28T03:25:59.283Z,82.27
2019-01-28T03:28:28.642Z,78.23
2019-01-28T03:30:57.983Z,74.13
2019-01-28T03:33:27.301Z,73.47
2019-01-28T03:35:56.783Z,77.93
2019-01-28T03:38:26.170Z,75.40
2019-01-28T03:40:55.534Z,73.43
2019-01-28T03:43:24.903Z,74.20
2019-01-28T03:45:54.302Z,74.13
2019-01-28T03:48:23.638Z,75.37
2019-01-28T03:50:52.974Z,73.30
2019-01-28T03:53:22.423Z,70.83
2019-01-28T03:55:51.873Z,66.17
2019-01-28T03:58:21.210Z,70.07
2019-01-28T04:00:50.609Z,67.77
2019-01-28T04:03:19.984Z,73.53
2019-01-28T04:05:49.307Z,64.63
2019-01-28T04:08:18.660Z,62.17
2019-01-28T04:10:48.038Z,66.23
2019-01-28T04:13:17.730Z,64.23
2019-01-28T04:15:47.087Z,66.53
2019-01-28T04:18:16.488Z,62.67
2019-01-28T04:20:45.833Z,61.23
2019-01-28T04:23:15.175Z,59.83
2019-01-28T04:25:44.496Z,60.50
2019-01-28T04:28:13.832Z,56.40
2019-01-28T04:30:43.982Z,58.47
2019-01-28T04:33:13.330Z,62.67
2019-01-28T04:35:42.809Z,62.77
2019-01-28T04:38:12.144Z,56.73
2019-01-28T04:40:41.523Z,61.90
2019-01-28T04:43:10.869Z,58.43
2019-01-28T04:45:40.189Z,58.57
2019-01-28T04:48:09.565Z,59.90
2019-01-28T04:50:38.964Z,62.50
2019-01-28T04:53:08.280Z,60.67
2019-01-28T04:55:37.630Z,60.90
2019-01-28T04:58:06.957Z,61.93
2019-01-28T05:00:36.327Z,60.33
2019-01-28T05:03:05.781Z,60.37
2019-01-28T05:05:35.117Z,61.43
2019-01-28T05:08:04.752Z,61.40
2019-01-28T05:10:34.088Z,60.70
2019-01-28T05:13:04.909Z,62.10
2019-01-28T05:15:34.506Z,79.30
2019-01-28T05:18:03.835Z,64.13
2019-01-28T05:20:33.145Z,60.03
2019-01-28T05:23:02.935Z,68.30
2019-01-28T05:25:32.293Z,65.83
2019-01-28T05:28:01.655Z,59.53
2019-01-28T05:30:30.999Z,73.03
2019-01-28T05:33:00.392Z,65.47
2019-01-28T05:35:29.726Z,62.23
2019-01-28T05:37:59.061Z,65.33
2019-01-28T05:40:28.507Z,69.13
2019-01-28T05:42:57.830Z,54.43
2019-01-28T05:45:27.175Z,59.67
2019-01-28T05:47:56.599Z,66.23
2019-01-28T05:50:26.000Z,70.70
2019-01-28T05:52:57.592Z,67.00
2019-01-28T05:55:26.928Z,59.20
2019-01-28T05:57:56.298Z,66.83
2019-01-28T06:00:35.170Z,66.17
2019-01-28T06:03:04.837Z,68.07
2019-01-28T06:05:34.238Z,63.67
2019-01-28T06:08:05.305Z,76.10
2019-01-28T06:10:34.754Z,78.90
2019-01-28T06:13:04.130Z,72.87
2019-01-28T06:15:33.495Z,66.20
2019-01-28T06:18:02.935Z,64.77
2019-01-28T06:20:32.434Z,79.17
2019-01-28T06:23:01.937Z,81.30
2019-01-28T06:25:31.340Z,85.20
2019-01-28T06:28:00.804Z,86.70
2019-01-28T06:30:31.455Z,87.33
2019-01-28T06:33:00.911Z,82.63
2019-01-28T06:35:30.420Z,81.77
2019-01-28T06:37:59.966Z,77.37
2019-01-28T06:40:34.628Z,70.80
2019-01-28T06:43:04.626Z,80.90
2019-01-28T06:45:34.106Z,79.07
2019-01-28T06:48:03.483Z,76.43
2019-01-28T06:50:32.819Z,72.77
2019-01-28T06:53:02.269Z,73.10
2019-01-28T06:55:31.642Z,82.33
2019-01-28T06:58:01.005Z,75.93
2019-01-28T07:00:35.137Z,78.87
2019-01-28T07:03:05.593Z,75.73
2019-01-28T07:05:34.952Z,81.80
2019-01-28T07:08:04.403Z,79.97
2019-01-28T07:10:33.759Z,73.37
2019-01-28T07:13:03.123Z,73.63
2019-01-28T07:15:32.452Z,70.33
2019-01-28T07:18:01.814Z,74.57
2019-01-28T07:20:31.586Z,79.43
2019-01-28T07:23:01.508Z,79.17
2019-01-28T07:25:30.869Z,82.23
2019-01-28T07:28:00.351Z,73.90
2019-01-28T07:30:35.328Z,62.97
2019-01-28T07:33:04.871Z,71.03
2019-01-28T07:35:34.223Z,70.23
2019-01-28T07:38:03.641Z,64.07
2019-01-28T07:40:32.930Z,64.97
2019-01-28T07:43:02.222Z,59.43
2019-01-28T07:45:33.607Z,64.53
2019-01-28T07:48:03.406Z,64.87
2019-01-28T07:50:32.877Z,65.17
2019-01-28T07:53:02.372Z,62.47
2019-01-28T07:55:31.807Z,61.87
2019-01-28T07:58:01.140Z,62.87
2019-01-28T08:00:30.949Z,59.87
2019-01-28T08:03:00.477Z,62.23
2019-01-28T08:05:29.888Z,54.43
2019-01-28T08:07:59.311Z,54.57
2019-01-28T08:10:28.775Z,57.03
2019-01-28T08:12:58.358Z,54.03
2019-01-28T08:15:28.414Z,50.83
2019-01-28T08:17:57.813Z,52.70
2019-01-28T08:20:27.258Z,52.60
2019-01-28T08:22:56.611Z,49.27
2019-01-28T08:25:25.953Z,49.47
2019-01-28T08:27:55.297Z,50.87
2019-01-28T08:30:33.098Z,49.43
2019-01-28T08:33:03.057Z,53.73
2019-01-28T08:35:33.580Z,53.43
2019-01-28T08:38:02.915Z,61.47
2019-01-28T08:40:32.313Z,61.77
2019-01-28T08:43:01.643Z,63.87
2019-01-28T08:45:31.012Z,66.80
2019-01-28T08:48:00.378Z,67.60
2019-01-28T08:50:29.807Z,71.57
2019-01-28T08:52:59.215Z,72.60
2019-01-28T08:55:28.647Z,70.37
2019-01-28T08:57:58.375Z,76.57
2019-01-28T09:00:39.234Z,69.10
2019-01-28T09:03:08.672Z,74.50
2019-01-28T09:05:38.354Z,67.67
2019-01-28T09:08:08.598Z,69.03
2019-01-28T09:10:38.142Z,55.27
2019-01-28T09:13:08.422Z,59.87
2019-01-28T09:15:37.969Z,59.77
2019-01-28T09:18:09.080Z,47.70
2019-01-28T09:20:38.528Z,62.77
2019-01-28T09:23:07.936Z,56.30
2019-01-28T09:25:37.273Z,60.57
2019-01-28T09:28:06.794Z,59.67
2019-01-28T09:30:36.242Z,67.23
2019-01-28T09:33:05.739Z,68.93
2019-01-28T09:35:35.968Z,66.67
2019-01-28T09:38:05.798Z,59.80
2019-01-28T09:40:36.002Z,61.77
2019-01-28T09:43:06.156Z,66.03
2019-01-28T09:45:37.875Z,67.43
2019-01-28T09:48:07.972Z,70.47
2019-01-28T09:50:37.302Z,68.67
2019-01-28T09:53:07.209Z,54.23
2019-01-28T09:55:36.557Z,57.77
2019-01-28T09:58:06.770Z,49.70
2019-01-28T10:00:39.170Z,49.67
2019-01-28T10:03:09.062Z,49.63
2019-01-28T10:05:38.453Z,46.37
2019-01-28T10:08:08.789Z,47.20
2019-01-28T10:10:38.300Z,48.17
2019-01-28T10:13:08.170Z,47.87
2019-01-28T10:15:37.707Z,48.57
2019-01-28T10:18:07.253Z,46.73
2019-01-28T10:20:39.043Z,44.87
2019-01-28T10:23:08.741Z,46.50
2019-01-28T10:25:38.090Z,42.67
2019-01-28T10:28:07.429Z,44.97
2019-01-28T10:30:38.761Z,45.40
2019-01-28T10:33:09.234Z,40.23
2019-01-28T10:35:39.519Z,33.23
2019-01-28T10:38:09.616Z,27.93
2019-01-28T10:40:41.184Z,27.97
2019-01-28T10:43:10.851Z,28.03
2019-01-28T10:45:40.235Z,28.07
2019-01-28T10:48:11.031Z,28.30
2019-01-28T10:50:41.519Z,25.87
2019-01-28T10:53:10.860Z,24.73
2019-01-28T10:55:40.217Z,26.37
2019-01-28T10:58:09.579Z,25.60
2019-01-28T11:00:45.039Z,29.47
2019-01-28T11:03:16.027Z,25.83
2019-01-28T11:05:45.492Z,26.73
2019-01-28T11:08:14.938Z,23.60
2019-01-28T11:10:44.391Z,20.97
2019-01-28T11:13:13.836Z,22.03
2019-01-28T11:15:43.123Z,22.83
2019-01-28T11:18:25.155Z,20.03
2019-01-28T11:20:54.667Z,19.33
2019-01-28T11:23:24.107Z,19.07
2019-01-28T11:25:53.578Z,21.33
2019-01-28T11:28:23.010Z,19.40
2019-01-28T11:31:00.093Z,17.80
2019-01-28T11:33:29.608Z,18.63
2019-01-28T11:36:05.076Z,19.63
2019-01-28T11:38:31.179Z,18.73
2019-01-28T11:41:00.649Z,21.40
2019-01-28T11:43:30.085Z,19.30
2019-01-28T11:46:01.659Z,17.60
2019-01-28T11:48:32.799Z,18.63
2019-01-28T11:51:02.099Z,18.73
2019-01-28T11:53:31.502Z,29.07
2019-01-28T11:56:00.852Z,18.60
2019-01-28T11:58:30.219Z,17.77
2019-01-28T12:01:14.793Z,17.50
2019-01-28T12:03:44.078Z,16.97
2019-01-28T12:06:13.469Z,18.47
2019-01-28T12:08:42.810Z,18.37
2019-01-28T12:11:12.152Z,17.80
2019-01-28T12:13:41.503Z,18.43
2019-01-28T12:16:10.858Z,18.13
2019-01-28T12:18:40.223Z,17.70
2019-01-28T12:21:09.640Z,19.40
2019-01-28T12:23:38.990Z,19.50
2019-01-28T12:26:08.442Z,19.43
2019-01-28T12:28:37.935Z,21.63
2019-01-28T12:31:07.382Z,19.53
2019-01-28T12:33:36.712Z,17.90
2019-01-28T12:36:06.165Z,21.70
2019-01-28T12:38:35.517Z,21.47
2019-01-28T12:41:06.544Z,20.53
2019-01-28T12:43:35.941Z,22.37
2019-01-28T12:46:05.576Z,22.20
2019-01-28T12:48:35.031Z,20.20
2019-01-28T12:51:04.764Z,21.47
2019-01-28T12:53:34.322Z,21.53
2019-01-28T12:56:03.688Z,20.47
2019-01-28T12:58:33.053Z,24.40
2019-01-28T13:01:04.152Z,18.87
2019-01-28T13:03:33.595Z,21.07
2019-01-28T13:06:03.024Z,20.10
2019-01-28T13:08:32.370Z,24.23
2019-01-28T13:11:01.751Z,27.80
2019-01-28T13:13:31.108Z,27.20
2019-01-28T13:16:00.431Z,24.13
2019-01-28T13:18:29.762Z,25.17
2019-01-28T13:20:59.073Z,24.13
2019-01-28T13:23:28.570Z,25.27
2019-01-28T13:25:57.874Z,27.33
2019-01-28T13:28:27.225Z,26.27
2019-01-28T13:30:56.568Z,24.10
2019-01-28T13:33:26.114Z,22.43
2019-01-28T13:35:55.437Z,19.60
2019-01-28T13:38:24.849Z,20.33
2019-01-28T13:40:54.218Z,24.13
2019-01-28T13:43:23.583Z,21.93
2019-01-28T13:45:52.932Z,20.20
2019-01-28T13:48:22.355Z,24.73
2019-01-28T13:50:51.801Z,21.00
2019-01-28T13:53:21.070Z,20.63
2019-01-28T13:55:50.416Z,19.33
2019-01-28T13:58:19.720Z,20.20
2019-01-28T14:00:49.126Z,21.70
2019-01-28T14:03:18.697Z,19.93
2019-01-28T14:05:48.086Z,21.07
2019-01-28T14:08:17.479Z,25.13
2019-01-28T14:10:46.816Z,23.00
2019-01-28T14:13:16.236Z,22.23
2019-01-28T14:15:45.783Z,21.33
2019-01-28T14:18:15.193Z,22.40
2019-01-28T14:20:44.611Z,24.50
2019-01-28T14:23:13.952Z,23.13
2019-01-28T14:25:43.344Z,24.20
2019-01-28T14:28:13.273Z,21.30
2019-01-28T14:30:45.355Z,25.80
2019-01-28T14:33:14.710Z,21.50
2019-01-28T14:35:44.229Z,22.53
2019-01-28T14:38:14.911Z,24.07
2019-01-28T14:40:45.513Z,22.70
2019-01-28T14:43:15.119Z,22.63
2019-01-28T14:45:44.597Z,21.30
2019-01-28T14:48:14.830Z,26.50
2019-01-28T14:50:44.505Z,21.77
2019-01-28T14:53:26.305Z,24.17
2019-01-28T14:55:55.741Z,24.33
2019-01-28T14:58:25.218Z,22.40
2019-01-28T15:00:54.984Z,22.43
2019-01-28T15:03:24.540Z,20.40
2019-01-28T15:05:53.934Z,22.63
2019-01-28T15:08:23.451Z,23.13
2019-01-28T15:10:52.876Z,25.23
2019-01-28T15:13:22.319Z,21.67
2019-01-28T15:15:51.761Z,22.43
2019-01-28T15:18:21.151Z,21.17
2019-01-28T15:20:50.546Z,22.33
2019-01-28T15:23:19.964Z,22.80
2019-01-28T15:25:49.370Z,22.40
2019-01-28T15:28:18.858Z,22.27
2019-01-28T15:30:48.673Z,20.77
2019-01-28T15:33:18.246Z,22.07
2019-01-28T15:35:52.255Z,21.73
2019-01-28T15:38:21.655Z,23.13
2019-01-28T15:40:51.145Z,15.47
2019-01-28T15:43:20.547Z,25.53
2019-01-28T15:45:49.926Z,24.67
2019-01-28T15:48:19.299Z,27.80
2019-01-28T15:50:48.781Z,27.37
2019-01-28T15:53:18.297Z,25.50
2019-01-28T15:55:47.700Z,21.07
2019-01-28T15:58:17.142Z,22.63
2019-01-28T16:00:46.961Z,26.80
2019-01-28T16:03:16.498Z,27.03
2019-01-28T16:05:46.120Z,30.27
2019-01-28T16:08:15.520Z,29.80
2019-01-28T16:10:44.918Z,31.33
2019-01-28T16:13:14.383Z,33.03
2019-01-28T16:15:46.398Z,35.43
2019-01-28T16:18:16.235Z,39.63
2019-01-28T16:20:45.784Z,33.23
2019-01-28T16:23:15.293Z,32.93
2019-01-28T16:25:44.673Z,30.50
2019-01-28T16:28:14.045Z,28.47
2019-01-28T16:30:43.398Z,29.13
2019-01-28T16:33:12.794Z,31.37
2019-01-28T16:35:42.191Z,24.37
2019-01-28T16:38:12.092Z,26.00
2019-01-28T16:40:41.496Z,23.50
2019-01-28T16:43:11.188Z,25.03
2019-01-28T16:45:40.546Z,22.80
2019-01-28T16:48:10.261Z,27.00
2019-01-28T16:50:40.045Z,24.63
2019-01-28T16:53:09.761Z,24.37
2019-01-28T16:55:39.110Z,26.93
2019-01-28T16:58:09.683Z,33.20
2019-01-28T17:00:43.361Z,27.50
2019-01-28T17:03:14.176Z,28.57
2019-01-28T17:05:43.783Z,30.83
2019-01-28T17:08:13.143Z,33.57
2019-01-28T17:10:42.654Z,30.63
2019-01-28T17:13:12.959Z,25.03
2019-01-28T17:15:42.340Z,26.43
2019-01-28T17:18:11.819Z,23.67
2019-01-28T17:20:41.689Z,24.27
2019-01-28T17:23:11.075Z,26.17
2019-01-28T17:25:45.703Z,21.67
2019-01-28T17:28:15.088Z,22.33
2019-01-28T17:30:46.304Z,25.87
2019-01-28T17:33:15.938Z,26.60
2019-01-28T17:35:45.350Z,23.60
2019-01-28T17:38:14.755Z,28.47
2019-01-28T17:40:45.143Z,28.73
2019-01-28T17:43:15.979Z,31.23
2019-01-28T17:45:45.562Z,27.47
2019-01-28T17:48:14.956Z,27.50
2019-01-28T17:50:44.346Z,30.40
2019-01-28T17:53:13.871Z,28.20
2019-01-28T17:55:43.399Z,27.67
2019-01-28T17:58:14.267Z,27.17
2019-01-28T18:00:48.145Z,28.87
2019-01-28T18:03:17.504Z,29.07
2019-01-28T18:05:46.936Z,30.67
2019-01-28T18:08:16.434Z,30.67
2019-01-28T18:10:45.809Z,31.67
2019-01-28T18:13:15.201Z,34.73
2019-01-28T18:15:44.652Z,33.47
2019-01-28T18:18:14.117Z,33.77
2019-01-28T18:20:51.296Z,30.87
2019-01-28T18:23:20.098Z,28.07
2019-01-28T18:25:49.501Z,26.50
2019-01-28T18:28:19.181Z,25.57
2019-01-28T18:30:50.249Z,23.27
2019-01-28T18:33:19.651Z,26.67
2019-01-28T18:35:49.233Z,24.57
2019-01-28T18:38:19.654Z,26.57
2019-01-28T18:40:49.119Z,28.50
2019-01-28T18:43:18.961Z,27.87
2019-01-28T18:45:48.362Z,29.27
2019-01-28T18:48:18.562Z,33.40
2019-01-28T18:50:48.306Z,31.07
2019-01-28T18:53:17.943Z,29.47
2019-01-28T18:55:47.679Z,28.60
2019-01-28T18:58:17.090Z,35.17
2019-01-28T19:00:46.498Z,38.57
2019-01-28T19:03:16.161Z,37.90
2019-01-28T19:05:59.586Z,36.23
2019-01-28T19:08:51.454Z,39.37
2019-01-28T19:11:26.116Z,36.57
2019-01-28T19:14:07.593Z,37.67
2019-01-28T19:16:48.834Z,35.97
2019-01-28T19:19:37.884Z,38.93
2019-01-28T19:22:09.814Z,35.07
2019-01-28T19:24:39.277Z,37.23
2019-01-28T19:27:09.097Z,37.53
2019-01-28T19:29:38.513Z,34.87
2019-01-28T19:32:08.023Z,34.80
2019-01-28T19:34:37.496Z,36.73
2019-01-28T19:37:07.855Z,33.17
2019-01-28T19:39:37.287Z,38.57
2019-01-28T19:42:06.791Z,32.77
2019-01-28T19:44:36.210Z,33.87
2019-01-28T19:47:05.727Z,30.50
2019-01-28T19:49:35.162Z,31.27
2019-01-28T19:52:04.648Z,33.03
2019-01-28T19:54:34.041Z,28.40
2019-01-28T19:57:03.418Z,28.37
2019-01-28T19:59:32.903Z,28.97
2019-01-28T20:02:02.585Z,31.40
2019-01-28T20:04:32.824Z,29.67
2019-01-28T20:07:02.558Z,31.40
2019-01-28T20:09:31.929Z,29.73
2019-01-28T20:12:01.603Z,30.57
2019-01-28T20:14:30.981Z,32.50
2019-01-28T20:17:00.395Z,33.80
2019-01-28T20:19:29.756Z,31.53
2019-01-28T20:21:59.187Z,32.27
2019-01-28T20:24:28.586Z,32.00
2019-01-28T20:26:58.604Z,30.67
2019-01-28T20:29:27.993Z,33.23
2019-01-28T20:31:58.107Z,40.00
2019-01-28T20:34:27.793Z,34.37
2019-01-28T20:36:57.231Z,35.60
2019-01-28T20:39:26.612Z,36.13
2019-01-28T20:41:56.307Z,33.07
2019-01-28T20:44:26.674Z,33.97
2019-01-28T20:46:57.948Z,34.87
2019-01-28T20:49:30.080Z,37.53
2019-01-28T20:52:05.791Z,37.43
2019-01-28T20:54:35.771Z,34.33
2019-01-28T20:57:05.463Z,35.40
2019-01-28T20:59:35.352Z,33.90
2019-01-28T21:02:06.813Z,31.30
2019-01-28T21:04:36.180Z,32.00
2019-01-28T21:07:06.148Z,33.03
2019-01-28T21:09:35.580Z,35.50
2019-01-28T21:12:05.682Z,34.63
2019-01-28T21:14:35.051Z,34.73
2019-01-28T21:17:04.615Z,34.70
2019-01-28T21:19:34.032Z,33.73
2019-01-28T21:22:03.436Z,33.77
2019-01-28T21:24:32.879Z,38.43
2019-01-28T21:27:02.265Z,33.97
2019-01-28T21:29:31.704Z,32.60
2019-01-28T21:32:01.105Z,32.97
2019-01-28T21:34:30.496Z,33.70
2019-01-28T21:37:12.841Z,28.70
2019-01-28T21:39:42.207Z,26.37
2019-01-28T21:42:11.756Z,34.90
2019-01-28T21:44:41.168Z,29.73
2019-01-28T21:47:10.639Z,28.57
2019-01-28T21:49:40.081Z,33.17
2019-01-28T21:52:09.475Z,24.93
2019-01-28T21:54:38.877Z,29.73
2019-01-28T21:57:08.270Z,29.37
2019-01-28T21:59:37.679Z,29.60
2019-01-28T22:02:07.096Z,32.43
2019-01-28T22:04:36.636Z,30.43
2019-01-28T22:07:06.025Z,31.20
2019-01-28T22:09:35.407Z,31.90
2019-01-28T22:12:05.028Z,31.30
2019-01-28T22:14:34.385Z,31.10
2019-01-28T22:17:03.780Z,31.83
2019-01-28T22:19:33.150Z,27.23
2019-01-28T22:22:02.624Z,26.73
2019-01-28T22:24:31.980Z,28.07
2019-01-28T22:27:01.463Z,27.80
2019-01-28T22:29:30.848Z,27.73
2019-01-28T22:32:00.204Z,29.20
2019-01-28T22:34:29.566Z,29.53
2019-01-28T22:36:58.978Z,28.70
2019-01-28T22:39:28.388Z,29.50
2019-01-28T22:41:57.741Z,30.17
2019-01-28T22:44:27.141Z,24.77
2019-01-28T22:46:56.563Z,23.40
2019-01-28T22:49:25.919Z,25.97
2019-01-28T22:51:55.311Z,25.83
2019-01-28T22:54:24.859Z,24.60
2019-01-28T22:56:54.232Z,25.13
2019-01-28T22:59:23.658Z,28.17
2019-01-28T23:01:53.005Z,25.23
2019-01-28T23:04:22.405Z,25.10
2019-01-28T23:06:51.788Z,24.20
2019-01-28T23:09:21.234Z,20.90
2019-01-28T23:11:50.627Z,20.50
2019-01-28T23:14:20.017Z,19.77
2019-01-28T23:16:49.386Z,20.40
2019-01-28T23:19:18.773Z,19.80
2019-01-28T23:21:48.459Z,20.03
2019-01-28T23:24:17.859Z,21.60
2019-01-28T23:26:47.228Z,21.43
2019-01-28T23:29:16.603Z,20.07
2019-01-28T23:31:45.999Z,17.37
2019-01-28T23:34:15.366Z,19.47
2019-01-28T23:36:44.734Z,19.60
2019-01-28T23:39:14.108Z,19.50
2019-01-28T23:41:43.507Z,18.83
2019-01-28T23:44:12.892Z,17.50
2019-01-28T23:46:42.276Z,19.20
2019-01-28T23:49:11.646Z,16.80
2019-01-28T23:51:41.027Z,20.23
2019-01-28T23:54:10.439Z,20.27
2019-01-28T23:56:39.804Z,21.13
2019-01-28T23:59:09.170Z,22.63
